sensor_id;sensor_type;location;lat;lon;timestamp;pressure;altitude;pressure_sealevel;temperature
73937;BMP180;59249;59.736;30.568;2023-02-04T00:00:54;100865.00;;;-4.50
73937;BMP180;59249;59.736;30.568;2023-02-04T00:03:22;100869.00;;;-4.50
73937;BMP180;59249;59.736;30.568;2023-02-04T00:05:51;100867.00;;;-4.50
73937;BMP180;59249;59.736;30.568;2023-02-04T00:08:20;100865.00;;;-4.50
73937;BMP180;59249;59.736;30.568;2023-02-04T00:10:48;100864.00;;;-4.50
73937;BMP180;59249;59.736;30.568;2023-02-04T00:13:17;100865.00;;;-4.50
73937;BMP180;59249;59.736;30.568;2023-02-04T00:15:46;100872.00;;;-4.50
73937;BMP180;59249;59.736;30.568;2023-02-04T00:18:16;100873.00;;;-4.60
73937;BMP180;59249;59.736;30.568;2023-02-04T00:20:47;100877.00;;;-4.60
73937;BMP180;59249;59.736;30.568;2023-02-04T00:23:16;100881.00;;;-4.60
73937;BMP180;59249;59.736;30.568;2023-02-04T00:25:44;100885.00;;;-4.50
73937;BMP180;59249;59.736;30.568;2023-02-04T00:28:13;100875.00;;;-4.50
73937;BMP180;59249;59.736;30.568;2023-02-04T00:30:42;100884.00;;;-4.40
73937;BMP180;59249;59.736;30.568;2023-02-04T00:33:10;100899.00;;;-4.50
73937;BMP180;59249;59.736;30.568;2023-02-04T00:35:43;100900.00;;;-4.50
73937;BMP180;59249;59.736;30.568;2023-02-04T00:38:12;100910.00;;;-4.50
73937;BMP180;59249;59.736;30.568;2023-02-04T00:40:41;100919.00;;;-4.50
73937;BMP180;59249;59.736;30.568;2023-02-04T00:43:10;100915.00;;;-4.50
73937;BMP180;59249;59.736;30.568;2023-02-04T00:45:38;100907.00;;;-4.60
73937;BMP180;59249;59.736;30.568;2023-02-04T00:48:07;100911.00;;;-4.50
73937;BMP180;59249;59.736;30.568;2023-02-04T00:50:35;100903.00;;;-4.50
73937;BMP180;59249;59.736;30.568;2023-02-04T00:53:07;100904.00;;;-4.60
73937;BMP180;59249;59.736;30.568;2023-02-04T00:55:35;100912.00;;;-4.60
73937;BMP180;59249;59.736;30.568;2023-02-04T00:58:04;100929.00;;;-4.50
73937;BMP180;59249;59.736;30.568;2023-02-04T01:00:33;100913.00;;;-4.50
73937;BMP180;59249;59.736;30.568;2023-02-04T01:03:01;100925.00;;;-4.60
73937;BMP180;59249;59.736;30.568;2023-02-04T01:05:30;100916.00;;;-4.70
73937;BMP180;59249;59.736;30.568;2023-02-04T01:07:59;100915.00;;;-4.60
73937;BMP180;59249;59.736;30.568;2023-02-04T01:10:29;100928.00;;;-4.50
73937;BMP180;59249;59.736;30.568;2023-02-04T01:12:58;100938.00;;;-4.50
73937;BMP180;59249;59.736;30.568;2023-02-04T01:15:28;100927.00;;;-4.50
73937;BMP180;59249;59.736;30.568;2023-02-04T01:17:57;100922.00;;;-4.50
73937;BMP180;59249;59.736;30.568;2023-02-04T01:20:25;100939.00;;;-4.60
73937;BMP180;59249;59.736;30.568;2023-02-04T01:22:54;100939.00;;;-4.70
73937;BMP180;59249;59.736;30.568;2023-02-04T01:25:23;100942.00;;;-4.60
73937;BMP180;59249;59.736;30.568;2023-02-04T01:27:55;100949.00;;;-4.60
73937;BMP180;59249;59.736;30.568;2023-02-04T01:30:23;100956.00;;;-4.60
73937;BMP180;59249;59.736;30.568;2023-02-04T01:32:54;100949.00;;;-4.50
73937;BMP180;59249;59.736;30.568;2023-02-04T01:35:23;100954.00;;;-4.50
73937;BMP180;59249;59.736;30.568;2023-02-04T01:37:52;100967.00;;;-4.50
73937;BMP180;59249;59.736;30.568;2023-02-04T01:40:20;100969.00;;;-4.50
73937;BMP180;59249;59.736;30.568;2023-02-04T01:42:50;100970.00;;;-4.50
73937;BMP180;59249;59.736;30.568;2023-02-04T01:45:21;100974.00;;;-4.40
73937;BMP180;59249;59.736;30.568;2023-02-04T01:47:49;100973.00;;;-4.40
73937;BMP180;59249;59.736;30.568;2023-02-04T01:50:18;100977.00;;;-4.40
73937;BMP180;59249;59.736;30.568;2023-02-04T01:52:47;100976.00;;;-4.30
73937;BMP180;59249;59.736;30.568;2023-02-04T01:55:19;100972.00;;;-4.40
73937;BMP180;59249;59.736;30.568;2023-02-04T01:57:51;100979.00;;;-4.30
73937;BMP180;59249;59.736;30.568;2023-02-04T02:00:25;101000.00;;;-4.30
73937;BMP180;59249;59.736;30.568;2023-02-04T02:02:57;100992.00;;;-4.20
73937;BMP180;59249;59.736;30.568;2023-02-04T02:05:29;100995.00;;;-4.20
73937;BMP180;59249;59.736;30.568;2023-02-04T02:08:01;100996.00;;;-4.20
73937;BMP180;59249;59.736;30.568;2023-02-04T02:10:32;100996.00;;;-4.20
73937;BMP180;59249;59.736;30.568;2023-02-04T02:13:03;100999.00;;;-4.10
73937;BMP180;59249;59.736;30.568;2023-02-04T02:15:38;100999.00;;;-4.10
73937;BMP180;59249;59.736;30.568;2023-02-04T02:18:08;101004.00;;;-4.00
73937;BMP180;59249;59.736;30.568;2023-02-04T02:20:38;101009.00;;;-4.00
73937;BMP180;59249;59.736;30.568;2023-02-04T02:23:14;101014.00;;;-3.90
73937;BMP180;59249;59.736;30.568;2023-02-04T02:25:55;101020.00;;;-3.90
73937;BMP180;59249;59.736;30.568;2023-02-04T02:28:24;101011.00;;;-3.90
73937;BMP180;59249;59.736;30.568;2023-02-04T02:30:52;101016.00;;;-3.80
73937;BMP180;59249;59.736;30.568;2023-02-04T02:33:21;101027.00;;;-3.80
73937;BMP180;59249;59.736;30.568;2023-02-04T02:35:52;101031.00;;;-3.70
73937;BMP180;59249;59.736;30.568;2023-02-04T02:38:23;101039.00;;;-3.60
73937;BMP180;59249;59.736;30.568;2023-02-04T02:40:53;101036.00;;;-3.50
73937;BMP180;59249;59.736;30.568;2023-02-04T02:43:25;101041.00;;;-3.40
73937;BMP180;59249;59.736;30.568;2023-02-04T02:45:58;101040.00;;;-3.40
73937;BMP180;59249;59.736;30.568;2023-02-04T02:48:27;101048.00;;;-3.30
73937;BMP180;59249;59.736;30.568;2023-02-04T02:50:56;101048.00;;;-3.30
73937;BMP180;59249;59.736;30.568;2023-02-04T02:53:25;101057.00;;;-3.30
73937;BMP180;59249;59.736;30.568;2023-02-04T02:55:55;101072.00;;;-3.20
73937;BMP180;59249;59.736;30.568;2023-02-04T02:58:27;101076.00;;;-3.30
73937;BMP180;59249;59.736;30.568;2023-02-04T03:00:59;101072.00;;;-3.20
73937;BMP180;59249;59.736;30.568;2023-02-04T03:03:32;101077.00;;;-3.20
73937;BMP180;59249;59.736;30.568;2023-02-04T03:06:05;101085.00;;;-3.10
73937;BMP180;59249;59.736;30.568;2023-02-04T03:08:38;101074.00;;;-3.10
73937;BMP180;59249;59.736;30.568;2023-02-04T03:11:09;101088.00;;;-3.10
73937;BMP180;59249;59.736;30.568;2023-02-04T03:13:38;101092.00;;;-3.10
73937;BMP180;59249;59.736;30.568;2023-02-04T03:16:08;101096.00;;;-3.10
73937;BMP180;59249;59.736;30.568;2023-02-04T03:18:37;101100.00;;;-3.00
73937;BMP180;59249;59.736;30.568;2023-02-04T03:21:06;101114.00;;;-3.00
73937;BMP180;59249;59.736;30.568;2023-02-04T03:23:36;101113.00;;;-3.00
73937;BMP180;59249;59.736;30.568;2023-02-04T03:26:05;101109.00;;;-3.00
73937;BMP180;59249;59.736;30.568;2023-02-04T03:28:39;101125.00;;;-3.00
73937;BMP180;59249;59.736;30.568;2023-02-04T03:31:09;101128.00;;;-3.00
73937;BMP180;59249;59.736;30.568;2023-02-04T03:33:38;101132.00;;;-2.90
73937;BMP180;59249;59.736;30.568;2023-02-04T03:36:08;101129.00;;;-2.90
73937;BMP180;59249;59.736;30.568;2023-02-04T03:38:37;101129.00;;;-2.80
73937;BMP180;59249;59.736;30.568;2023-02-04T03:41:07;101141.00;;;-2.80
73937;BMP180;59249;59.736;30.568;2023-02-04T03:43:35;101148.00;;;-2.80
73937;BMP180;59249;59.736;30.568;2023-02-04T03:46:05;101151.00;;;-2.70
73937;BMP180;59249;59.736;30.568;2023-02-04T03:48:34;101146.00;;;-2.70
73937;BMP180;59249;59.736;30.568;2023-02-04T03:51:03;101154.00;;;-2.80
73937;BMP180;59249;59.736;30.568;2023-02-04T03:53:32;101149.00;;;-2.70
73937;BMP180;59249;59.736;30.568;2023-02-04T03:56:00;101161.00;;;-2.70
73937;BMP180;59249;59.736;30.568;2023-02-04T03:58:29;101169.00;;;-2.60
73937;BMP180;59249;59.736;30.568;2023-02-04T04:00:58;101157.00;;;-2.60
73937;BMP180;59249;59.736;30.568;2023-02-04T04:03:28;101172.00;;;-2.50
73937;BMP180;59249;59.736;30.568;2023-02-04T04:05:56;101177.00;;;-2.60
73937;BMP180;59249;59.736;30.568;2023-02-04T04:08:25;101171.00;;;-2.50
73937;BMP180;59249;59.736;30.568;2023-02-04T04:10:54;101171.00;;;-2.50
73937;BMP180;59249;59.736;30.568;2023-02-04T04:13:22;101184.00;;;-2.50
73937;BMP180;59249;59.736;30.568;2023-02-04T04:15:51;101193.00;;;-2.40
73937;BMP180;59249;59.736;30.568;2023-02-04T04:18:20;101195.00;;;-2.50
73937;BMP180;59249;59.736;30.568;2023-02-04T04:20:49;101213.00;;;-2.50
73937;BMP180;59249;59.736;30.568;2023-02-04T04:23:18;101200.00;;;-2.40
73937;BMP180;59249;59.736;30.568;2023-02-04T04:25:47;101194.00;;;-2.50
73937;BMP180;59249;59.736;30.568;2023-02-04T04:28:15;101195.00;;;-2.50
73937;BMP180;59249;59.736;30.568;2023-02-04T04:30:45;101198.00;;;-2.40
73937;BMP180;59249;59.736;30.568;2023-02-04T04:33:13;101206.00;;;-2.40
73937;BMP180;59249;59.736;30.568;2023-02-04T04:35:42;101205.00;;;-2.30
73937;BMP180;59249;59.736;30.568;2023-02-04T04:38:12;101214.00;;;-2.30
73937;BMP180;59249;59.736;30.568;2023-02-04T04:40:41;101206.00;;;-2.30
73937;BMP180;59249;59.736;30.568;2023-02-04T04:43:09;101214.00;;;-2.20
73937;BMP180;59249;59.736;30.568;2023-02-04T04:45:38;101213.00;;;-2.20
73937;BMP180;59249;59.736;30.568;2023-02-04T04:48:07;101226.00;;;-2.10
73937;BMP180;59249;59.736;30.568;2023-02-04T04:50:35;101224.00;;;-2.20
73937;BMP180;59249;59.736;30.568;2023-02-04T04:53:04;101243.00;;;-2.20
73937;BMP180;59249;59.736;30.568;2023-02-04T04:55:39;101241.00;;;-2.20
73937;BMP180;59249;59.736;30.568;2023-02-04T04:58:07;101237.00;;;-2.20
73937;BMP180;59249;59.736;30.568;2023-02-04T05:00:37;101248.00;;;-2.20
73937;BMP180;59249;59.736;30.568;2023-02-04T05:03:05;101247.00;;;-2.20
73937;BMP180;59249;59.736;30.568;2023-02-04T05:05:34;101253.00;;;-2.20
73937;BMP180;59249;59.736;30.568;2023-02-04T05:08:06;101256.00;;;-2.10
73937;BMP180;59249;59.736;30.568;2023-02-04T05:10:40;101258.00;;;-2.20
73937;BMP180;59249;59.736;30.568;2023-02-04T05:13:10;101269.00;;;-2.30
73937;BMP180;59249;59.736;30.568;2023-02-04T05:15:38;101268.00;;;-2.20
73937;BMP180;59249;59.736;30.568;2023-02-04T05:18:08;101274.00;;;-2.10
73937;BMP180;59249;59.736;30.568;2023-02-04T05:20:37;101280.00;;;-2.20
73937;BMP180;59249;59.736;30.568;2023-02-04T05:23:05;101291.00;;;-2.30
73937;BMP180;59249;59.736;30.568;2023-02-04T05:25:34;101288.00;;;-2.30
73937;BMP180;59249;59.736;30.568;2023-02-04T05:28:04;101294.00;;;-2.40
73937;BMP180;59249;59.736;30.568;2023-02-04T05:30:35;101294.00;;;-2.30
73937;BMP180;59249;59.736;30.568;2023-02-04T05:33:04;101302.00;;;-2.30
73937;BMP180;59249;59.736;30.568;2023-02-04T05:35:32;101297.00;;;-2.30
73937;BMP180;59249;59.736;30.568;2023-02-04T05:38:01;101303.00;;;-2.40
73937;BMP180;59249;59.736;30.568;2023-02-04T05:40:29;101308.00;;;-2.40
73937;BMP180;59249;59.736;30.568;2023-02-04T05:42:59;101313.00;;;-2.30
73937;BMP180;59249;59.736;30.568;2023-02-04T05:45:29;101306.00;;;-2.20
73937;BMP180;59249;59.736;30.568;2023-02-04T05:47:58;101307.00;;;-2.20
73937;BMP180;59249;59.736;30.568;2023-02-04T05:50:27;101312.00;;;-2.10
73937;BMP180;59249;59.736;30.568;2023-02-04T05:53:07;101318.00;;;-2.20
73937;BMP180;59249;59.736;30.568;2023-02-04T05:55:36;101324.00;;;-2.20
73937;BMP180;59249;59.736;30.568;2023-02-04T05:58:04;101322.00;;;-2.20
73937;BMP180;59249;59.736;30.568;2023-02-04T06:00:34;101325.00;;;-2.20
73937;BMP180;59249;59.736;30.568;2023-02-04T06:03:03;101319.00;;;-2.20
73937;BMP180;59249;59.736;30.568;2023-02-04T06:05:32;101335.00;;;-2.20
73937;BMP180;59249;59.736;30.568;2023-02-04T06:08:01;101322.00;;;-2.10
73937;BMP180;59249;59.736;30.568;2023-02-04T06:10:29;101333.00;;;-2.10
73937;BMP180;59249;59.736;30.568;2023-02-04T06:12:58;101334.00;;;-2.10
73937;BMP180;59249;59.736;30.568;2023-02-04T06:15:27;101344.00;;;-2.10
73937;BMP180;59249;59.736;30.568;2023-02-04T06:17:57;101347.00;;;-2.10
73937;BMP180;59249;59.736;30.568;2023-02-04T06:20:26;101361.00;;;-2.00
73937;BMP180;59249;59.736;30.568;2023-02-04T06:22:55;101358.00;;;-2.10
73937;BMP180;59249;59.736;30.568;2023-02-04T06:25:24;101356.00;;;-2.10
73937;BMP180;59249;59.736;30.568;2023-02-04T06:27:52;101362.00;;;-2.00
73937;BMP180;59249;59.736;30.568;2023-02-04T06:30:21;101367.00;;;-2.00
73937;BMP180;59249;59.736;30.568;2023-02-04T06:32:50;101361.00;;;-2.00
73937;BMP180;59249;59.736;30.568;2023-02-04T06:35:20;101381.00;;;-2.00
73937;BMP180;59249;59.736;30.568;2023-02-04T06:37:49;101369.00;;;-2.00
73937;BMP180;59249;59.736;30.568;2023-02-04T06:40:18;101374.00;;;-1.90
73937;BMP180;59249;59.736;30.568;2023-02-04T06:42:47;101383.00;;;-1.90
73937;BMP180;59249;59.736;30.568;2023-02-04T06:45:15;101390.00;;;-1.90
73937;BMP180;59249;59.736;30.568;2023-02-04T06:47:44;101394.00;;;-1.90
73937;BMP180;59249;59.736;30.568;2023-02-04T06:50:13;101387.00;;;-2.00
73937;BMP180;59249;59.736;30.568;2023-02-04T06:52:46;101404.00;;;-1.90
73937;BMP180;59249;59.736;30.568;2023-02-04T06:55:15;101407.00;;;-1.80
73937;BMP180;59249;59.736;30.568;2023-02-04T06:57:44;101407.00;;;-2.00
73937;BMP180;59249;59.736;30.568;2023-02-04T07:00:14;101414.00;;;-1.90
73937;BMP180;59249;59.736;30.568;2023-02-04T07:02:43;101420.00;;;-1.80
73937;BMP180;59249;59.736;30.568;2023-02-04T07:05:12;101415.00;;;-1.70
73937;BMP180;59249;59.736;30.568;2023-02-04T07:07:40;101428.00;;;-1.90
73937;BMP180;59249;59.736;30.568;2023-02-04T07:10:11;101427.00;;;-1.80
73937;BMP180;59249;59.736;30.568;2023-02-04T07:12:40;101430.00;;;-1.80
73937;BMP180;59249;59.736;30.568;2023-02-04T07:15:09;101424.00;;;-1.80
73937;BMP180;59249;59.736;30.568;2023-02-04T07:17:38;101432.00;;;-1.80
73937;BMP180;59249;59.736;30.568;2023-02-04T07:20:07;101444.00;;;-1.80
73937;BMP180;59249;59.736;30.568;2023-02-04T07:22:37;101440.00;;;-1.80
73937;BMP180;59249;59.736;30.568;2023-02-04T07:25:06;101447.00;;;-1.70
73937;BMP180;59249;59.736;30.568;2023-02-04T07:27:37;101445.00;;;-1.70
73937;BMP180;59249;59.736;30.568;2023-02-04T07:30:07;101444.00;;;-1.80
73937;BMP180;59249;59.736;30.568;2023-02-04T07:32:37;101446.00;;;-1.70
73937;BMP180;59249;59.736;30.568;2023-02-04T07:35:06;101454.00;;;-1.70
73937;BMP180;59249;59.736;30.568;2023-02-04T07:37:35;101440.00;;;-1.70
73937;BMP180;59249;59.736;30.568;2023-02-04T07:40:04;101460.00;;;-1.80
73937;BMP180;59249;59.736;30.568;2023-02-04T07:42:33;101452.00;;;-1.80
73937;BMP180;59249;59.736;30.568;2023-02-04T07:45:10;101458.00;;;-1.70
73937;BMP180;59249;59.736;30.568;2023-02-04T07:47:39;101470.00;;;-1.70
73937;BMP180;59249;59.736;30.568;2023-02-04T07:50:08;101479.00;;;-1.80
73937;BMP180;59249;59.736;30.568;2023-02-04T07:52:37;101476.00;;;-1.70
73937;BMP180;59249;59.736;30.568;2023-02-04T07:55:06;101486.00;;;-1.50
73937;BMP180;59249;59.736;30.568;2023-02-04T07:57:36;101485.00;;;-1.70
73937;BMP180;59249;59.736;30.568;2023-02-04T08:00:05;101493.00;;;-1.60
73937;BMP180;59249;59.736;30.568;2023-02-04T08:02:41;101488.00;;;-1.50
73937;BMP180;59249;59.736;30.568;2023-02-04T08:05:10;101504.00;;;-1.30
73937;BMP180;59249;59.736;30.568;2023-02-04T08:07:39;101494.00;;;-1.30
73937;BMP180;59249;59.736;30.568;2023-02-04T08:10:09;101518.00;;;-1.30
73937;BMP180;59249;59.736;30.568;2023-02-04T08:12:38;101502.00;;;-1.30
73937;BMP180;59249;59.736;30.568;2023-02-04T08:15:07;101514.00;;;-1.20
73937;BMP180;59249;59.736;30.568;2023-02-04T08:17:36;101515.00;;;-1.20
73937;BMP180;59249;59.736;30.568;2023-02-04T08:20:07;101526.00;;;-1.20
73937;BMP180;59249;59.736;30.568;2023-02-04T08:22:37;101533.00;;;-1.20
73937;BMP180;59249;59.736;30.568;2023-02-04T08:25:06;101540.00;;;-1.30
73937;BMP180;59249;59.736;30.568;2023-02-04T08:27:36;101523.00;;;-1.20
73937;BMP180;59249;59.736;30.568;2023-02-04T08:30:06;101541.00;;;-1.30
73937;BMP180;59249;59.736;30.568;2023-02-04T08:32:36;101533.00;;;-1.30
73937;BMP180;59249;59.736;30.568;2023-02-04T08:35:07;101540.00;;;-1.30
73937;BMP180;59249;59.736;30.568;2023-02-04T08:37:36;101543.00;;;-1.20
73937;BMP180;59249;59.736;30.568;2023-02-04T08:40:05;101542.00;;;-1.20
73937;BMP180;59249;59.736;30.568;2023-02-04T08:42:34;101550.00;;;-1.20
73937;BMP180;59249;59.736;30.568;2023-02-04T08:45:04;101542.00;;;-1.10
73937;BMP180;59249;59.736;30.568;2023-02-04T08:47:33;101551.00;;;-1.00
73937;BMP180;59249;59.736;30.568;2023-02-04T08:50:02;101556.00;;;-0.80
73937;BMP180;59249;59.736;30.568;2023-02-04T08:52:34;101557.00;;;-0.80
73937;BMP180;59249;59.736;30.568;2023-02-04T08:55:03;101564.00;;;-0.70
73937;BMP180;59249;59.736;30.568;2023-02-04T08:57:32;101569.00;;;-0.70
73937;BMP180;59249;59.736;30.568;2023-02-04T09:00:04;101571.00;;;-0.60
73937;BMP180;59249;59.736;30.568;2023-02-04T09:02:34;101572.00;;;-0.60
73937;BMP180;59249;59.736;30.568;2023-02-04T09:05:03;101594.00;;;-0.60
73937;BMP180;59249;59.736;30.568;2023-02-04T09:07:33;101588.00;;;-0.60
73937;BMP180;59249;59.736;30.568;2023-02-04T09:10:02;101597.00;;;-0.60
73937;BMP180;59249;59.736;30.568;2023-02-04T09:12:32;101609.00;;;-0.80
73937;BMP180;59249;59.736;30.568;2023-02-04T09:15:01;101595.00;;;-0.70
73937;BMP180;59249;59.736;30.568;2023-02-04T09:17:31;101604.00;;;-0.60
73937;BMP180;59249;59.736;30.568;2023-02-04T09:20:01;101597.00;;;-0.50
73937;BMP180;59249;59.736;30.568;2023-02-04T09:22:32;101597.00;;;-0.50
73937;BMP180;59249;59.736;30.568;2023-02-04T09:25:04;101608.00;;;-0.40
73937;BMP180;59249;59.736;30.568;2023-02-04T09:27:34;101614.00;;;-0.40
73937;BMP180;59249;59.736;30.568;2023-02-04T09:30:03;101608.00;;;-0.50
73937;BMP180;59249;59.736;30.568;2023-02-04T09:32:32;101619.00;;;-0.30
73937;BMP180;59249;59.736;30.568;2023-02-04T09:35:01;101621.00;;;-0.20
73937;BMP180;59249;59.736;30.568;2023-02-04T09:37:29;101626.00;;;-0.20
73937;BMP180;59249;59.736;30.568;2023-02-04T09:39:59;101626.00;;;-0.30
73937;BMP180;59249;59.736;30.568;2023-02-04T09:42:29;101634.00;;;-0.20
73937;BMP180;59249;59.736;30.568;2023-02-04T09:44:58;101626.00;;;-0.40
73937;BMP180;59249;59.736;30.568;2023-02-04T09:47:30;101628.00;;;-0.50
73937;BMP180;59249;59.736;30.568;2023-02-04T09:50:01;101636.00;;;-0.40
73937;BMP180;59249;59.736;30.568;2023-02-04T09:52:30;101634.00;;;-0.40
73937;BMP180;59249;59.736;30.568;2023-02-04T09:55:00;101646.00;;;-0.30
73937;BMP180;59249;59.736;30.568;2023-02-04T09:57:29;101646.00;;;-0.30
73937;BMP180;59249;59.736;30.568;2023-02-04T09:59:58;101646.00;;;-0.30
73937;BMP180;59249;59.736;30.568;2023-02-04T10:02:28;101658.00;;;-0.20
73937;BMP180;59249;59.736;30.568;2023-02-04T10:04:57;101660.00;;;-0.20
73937;BMP180;59249;59.736;30.568;2023-02-04T10:07:26;101661.00;;;-0.40
73937;BMP180;59249;59.736;30.568;2023-02-04T10:09:56;101678.00;;;-0.10
73937;BMP180;59249;59.736;30.568;2023-02-04T10:12:26;101669.00;;;-0.30
73937;BMP180;59249;59.736;30.568;2023-02-04T10:14:55;101675.00;;;-0.20
73937;BMP180;59249;59.736;30.568;2023-02-04T10:17:24;101671.00;;;-0.20
73937;BMP180;59249;59.736;30.568;2023-02-04T10:19:52;101680.00;;;-0.20
73937;BMP180;59249;59.736;30.568;2023-02-04T10:22:21;101683.00;;;-0.10
73937;BMP180;59249;59.736;30.568;2023-02-04T10:24:50;101684.00;;;-0.10
73937;BMP180;59249;59.736;30.568;2023-02-04T10:27:18;101692.00;;;-0.10
73937;BMP180;59249;59.736;30.568;2023-02-04T10:29:56;101701.00;;;-0.10
73937;BMP180;59249;59.736;30.568;2023-02-04T10:32:29;101707.00;;;-0.20
73937;BMP180;59249;59.736;30.568;2023-02-04T10:35:01;101702.00;;;-0.20
73937;BMP180;59249;59.736;30.568;2023-02-04T10:37:30;101705.00;;;-0.20
73937;BMP180;59249;59.736;30.568;2023-02-04T10:39:59;101712.00;;;-0.10
73937;BMP180;59249;59.736;30.568;2023-02-04T10:42:30;101704.00;;;-0.10
73937;BMP180;59249;59.736;30.568;2023-02-04T10:45:01;101709.00;;;-0.10
73937;BMP180;59249;59.736;30.568;2023-02-04T10:47:30;101711.00;;;0.00
73937;BMP180;59249;59.736;30.568;2023-02-04T10:50:03;101719.00;;;-0.10
73937;BMP180;59249;59.736;30.568;2023-02-04T10:52:45;101720.00;;;-0.20
73937;BMP180;59249;59.736;30.568;2023-02-04T10:55:18;101729.00;;;-0.10
73937;BMP180;59249;59.736;30.568;2023-02-04T10:57:50;101741.00;;;-0.10
73937;BMP180;59249;59.736;30.568;2023-02-04T11:00:23;101739.00;;;-0.10
73937;BMP180;59249;59.736;30.568;2023-02-04T11:02:56;101733.00;;;-0.20
73937;BMP180;59249;59.736;30.568;2023-02-04T11:05:30;101739.00;;;-0.20
73937;BMP180;59249;59.736;30.568;2023-02-04T11:08:01;101742.00;;;-0.30
73937;BMP180;59249;59.736;30.568;2023-02-04T11:10:54;101754.00;;;-0.40
73937;BMP180;59249;59.736;30.568;2023-02-04T11:13:26;101759.00;;;-0.40
73937;BMP180;59249;59.736;30.568;2023-02-04T11:16:10;101760.00;;;-0.40
73937;BMP180;59249;59.736;30.568;2023-02-04T11:18:52;101770.00;;;-0.50
73937;BMP180;59249;59.736;30.568;2023-02-04T11:21:26;101775.00;;;-0.50
73937;BMP180;59249;59.736;30.568;2023-02-04T11:24:04;101778.00;;;-0.30
73937;BMP180;59249;59.736;30.568;2023-02-04T11:26:50;101782.00;;;-0.30
73937;BMP180;59249;59.736;30.568;2023-02-04T11:29:26;101790.00;;;-0.40
73937;BMP180;59249;59.736;30.568;2023-02-04T11:32:04;101767.00;;;-0.10
73937;BMP180;59249;59.736;30.568;2023-02-04T11:34:46;101788.00;;;-0.20
73937;BMP180;59249;59.736;30.568;2023-02-04T11:37:32;101791.00;;;-0.10
73937;BMP180;59249;59.736;30.568;2023-02-04T11:40:19;101800.00;;;-0.30
73937;BMP180;59249;59.736;30.568;2023-02-04T11:42:56;101817.00;;;-0.30
73937;BMP180;59249;59.736;30.568;2023-02-04T11:45:29;101820.00;;;-0.40
73937;BMP180;59249;59.736;30.568;2023-02-04T11:48:03;101817.00;;;-0.40
73937;BMP180;59249;59.736;30.568;2023-02-04T11:50:39;101817.00;;;-0.50
73937;BMP180;59249;59.736;30.568;2023-02-04T11:53:10;101825.00;;;-0.50
73937;BMP180;59249;59.736;30.568;2023-02-04T11:55:43;101843.00;;;-0.40
73937;BMP180;59249;59.736;30.568;2023-02-04T11:58:15;101824.00;;;-0.40
73937;BMP180;59249;59.736;30.568;2023-02-04T12:00:46;101830.00;;;-0.30
73937;BMP180;59249;59.736;30.568;2023-02-04T12:03:46;101841.00;;;-0.50
73937;BMP180;59249;59.736;30.568;2023-02-04T12:06:20;101850.00;;;-0.40
73937;BMP180;59249;59.736;30.568;2023-02-04T12:08:50;101870.00;;;-0.40
73937;BMP180;59249;59.736;30.568;2023-02-04T12:11:27;101848.00;;;-0.50
73937;BMP180;59249;59.736;30.568;2023-02-04T12:14:06;101852.00;;;-0.40
73937;BMP180;59249;59.736;30.568;2023-02-04T12:16:39;101870.00;;;-0.60
73937;BMP180;59249;59.736;30.568;2023-02-04T12:19:10;101869.00;;;-0.60
73937;BMP180;59249;59.736;30.568;2023-02-04T12:21:39;101871.00;;;-0.60
73937;BMP180;59249;59.736;30.568;2023-02-04T12:24:09;101882.00;;;-0.50
73937;BMP180;59249;59.736;30.568;2023-02-04T12:26:42;101877.00;;;-0.60
73937;BMP180;59249;59.736;30.568;2023-02-04T12:29:11;101878.00;;;-0.60
73937;BMP180;59249;59.736;30.568;2023-02-04T12:31:39;101892.00;;;-0.70
73937;BMP180;59249;59.736;30.568;2023-02-04T12:34:11;101885.00;;;-0.70
73937;BMP180;59249;59.736;30.568;2023-02-04T12:36:39;101897.00;;;-0.60
73937;BMP180;59249;59.736;30.568;2023-02-04T12:39:10;101904.00;;;-0.60
73937;BMP180;59249;59.736;30.568;2023-02-04T12:41:40;101898.00;;;-0.60
73937;BMP180;59249;59.736;30.568;2023-02-04T12:44:09;101894.00;;;-0.60
73937;BMP180;59249;59.736;30.568;2023-02-04T12:46:41;101923.00;;;-0.80
73937;BMP180;59249;59.736;30.568;2023-02-04T12:49:11;101913.00;;;-0.70
73937;BMP180;59249;59.736;30.568;2023-02-04T12:51:40;101926.00;;;-0.70
73937;BMP180;59249;59.736;30.568;2023-02-04T12:54:08;101925.00;;;-0.70
73937;BMP180;59249;59.736;30.568;2023-02-04T12:56:37;101940.00;;;-0.70
73937;BMP180;59249;59.736;30.568;2023-02-04T12:59:06;101931.00;;;-0.70
73937;BMP180;59249;59.736;30.568;2023-02-04T13:01:34;101930.00;;;-0.80
73937;BMP180;59249;59.736;30.568;2023-02-04T13:04:03;101944.00;;;-0.50
73937;BMP180;59249;59.736;30.568;2023-02-04T13:06:34;101960.00;;;-0.70
73937;BMP180;59249;59.736;30.568;2023-02-04T13:09:02;101953.00;;;-0.70
73937;BMP180;59249;59.736;30.568;2023-02-04T13:11:31;101949.00;;;-0.80
73937;BMP180;59249;59.736;30.568;2023-02-04T13:14:00;101945.00;;;-0.90
73937;BMP180;59249;59.736;30.568;2023-02-04T13:16:29;101953.00;;;-0.80
73937;BMP180;59249;59.736;30.568;2023-02-04T13:18:57;101943.00;;;-0.80
73937;BMP180;59249;59.736;30.568;2023-02-04T13:21:26;101953.00;;;-0.90
73937;BMP180;59249;59.736;30.568;2023-02-04T13:24:00;101952.00;;;-0.90
73937;BMP180;59249;59.736;30.568;2023-02-04T13:26:28;101968.00;;;-0.80
73937;BMP180;59249;59.736;30.568;2023-02-04T13:28:57;101963.00;;;-0.90
73937;BMP180;59249;59.736;30.568;2023-02-04T13:31:26;101974.00;;;-0.70
73937;BMP180;59249;59.736;30.568;2023-02-04T13:33:54;101968.00;;;-0.70
73937;BMP180;59249;59.736;30.568;2023-02-04T13:36:23;101983.00;;;-0.80
73937;BMP180;59249;59.736;30.568;2023-02-04T13:38:53;101964.00;;;-0.80
73937;BMP180;59249;59.736;30.568;2023-02-04T13:41:24;101980.00;;;-0.60
73937;BMP180;59249;59.736;30.568;2023-02-04T13:43:52;101976.00;;;-0.90
73937;BMP180;59249;59.736;30.568;2023-02-04T13:46:21;101961.00;;;-1.00
73937;BMP180;59249;59.736;30.568;2023-02-04T13:48:50;101989.00;;;-0.70
73937;BMP180;59249;59.736;30.568;2023-02-04T13:51:19;101971.00;;;-0.80
73937;BMP180;59249;59.736;30.568;2023-02-04T13:53:48;101994.00;;;-0.80
73937;BMP180;59249;59.736;30.568;2023-02-04T13:56:17;101983.00;;;-0.70
73937;BMP180;59249;59.736;30.568;2023-02-04T13:58:50;101995.00;;;-0.70
73937;BMP180;59249;59.736;30.568;2023-02-04T14:01:19;102003.00;;;-0.90